Airfield :
LOGIN :

Register | Disclaimer

   EN    FR    IT 

 










Legend :    VFR   Marginal VFR   IFR   Intensive IFR   Very Intensive IFR
Visi :
Ceiling :
>= 8 km
>= 3000ft
5 to 8 km
1000 to 3000 ft
1500m to 5 km
500 to 1000 ft
800 to 1500m
200 to 500 ft
< 800m
< 200 ft
Symbols :   Thunderstorms  Fog  Heavy snow  Heavy precipitations  Wind > 20 kt
SIGMETs :     Misc.  Thunderstorms  Icing  Turbulence  Mountain Waves  Volcanic Ashes






- Airport Elevation : 13 ft
- IATA code : OST


EBOS - Oostend bruges Int.

CURRENT METAR :
  • 231950Z 32015KT CAVOK 09/01 Q1023 NOSIG

EXPIRED METARs :
  • 231920Z 31017KT CAVOK 09/02 Q1022 NOSIG
  • 231850Z 31018KT CAVOK 09/04 Q1022 NOSIG
  • 231820Z 31016KT CAVOK 09/03 Q1021 NOSIG
  • 231750Z 31015KT 9999 FEW046 09/04 Q1020 NOSIG
  • 231720Z 30017KT 9999 FEW024 BKN046 09/04 Q1020 NOSIG

TAF TAF EBOS
Valid from the 23 at 18:00 until the 25 at 00:00 UTC


231710Z 2318/2424 30015G25KT 9999 FEW020 SCT045
BECMG 2400/2402 19006KT
BECMG 2405/2407 4000 -RADZ RA BKN006 BKN012
BECMG 2408/2410 23020G33KT
TEMPO 2411/2415 7000 -DZ FEW006 BKN012
TEMPO 2412/2421 23025G40KT
BECMG 2419/2421 26020G30KT 9999 NSW FEW012 SCT040



MET'MAP, your aeronautical weather chart ! - Copyright ORBIFLY December 2007 - Disclaimer

ORBIFLY MET'MAP TEAM :

Programming & Development : Alexandra Zaïnal
Concept & original design : Baudouin d'Aumeries
Assistance for programming : Marc-Olivier Méhu
Technical & hardware support : Manuel Goepfert

Contact : metmap@orbifly.com




SOURCES & CREDITS :

   NOAA